Time;durP1;ratioP1;P1;durP2;ratioP2;P2;SDS_P1;SDS_P2;PMS_P1;PMS_P2;Temp;Humidity;BMP_temperature;BMP_pressure;BME280_temperature;BME280_humidity;BME280_pressure;Samples;Min_cycle;Max_cycle;Signal;HPM_P1;HPM_P2
2021/03/22 00:01:04;;;;;;;18.92;12.10;;;;;;;-1.94;100.00;100629.60;1644151;87;21605;-88
2021/03/22 00:03:32;;;;;;;20.90;12.58;;;;;;;-1.99;100.00;100628.84;1643667;85;21228;-88
2021/03/22 00:06:01;;;;;;;19.20;12.30;;;;;;;-2.00;100.00;100628.47;1644094;85;21196;-88
2021/03/22 00:08:30;;;;;;;17.48;11.00;;;;;;;-2.04;100.00;100630.23;1680801;83;22098;-89
2021/03/22 00:11:00;;;;;;;16.30;11.07;;;;;;;-2.10;100.00;100626.13;1687115;84;21257;-88
2021/03/22 00:13:29;;;;;;;22.48;12.20;;;;;;;-2.11;100.00;100628.27;1686951;84;21332;-88
2021/03/22 00:16:04;;;;;;;17.30;10.75;;;;;;;-2.11;100.00;100619.34;1686861;83;21146;-88
2021/03/22 00:18:36;;;;;;;16.55;11.38;;;;;;;-2.10;100.00;100615.91;1686937;84;21131;-88
2021/03/22 00:21:08;;;;;;;19.05;11.63;;;;;;;-2.08;100.00;100610.77;1686854;83;21174;-88
2021/03/22 00:23:37;;;;;;;15.90;10.75;;;;;;;-2.12;100.00;100603.63;1686941;83;21178;-88
2021/03/22 00:26:08;;;;;;;19.45;11.33;;;;;;;-2.19;100.00;100588.05;1686934;83;21181;-88
2021/03/22 00:32:05;;;;;;;14.03;9.65;;;;;;;-2.24;100.00;100583.47;1686907;83;21086;-88
2021/03/22 00:34:33;;;;;;;15.63;10.63;;;;;;;-2.31;100.00;100576.41;1686872;83;21122;-88
2021/03/22 00:37:09;;;;;;;16.82;10.98;;;;;;;-2.38;100.00;100571.88;1686939;83;21194;-89
2021/03/22 00:39:38;;;;;;;16.10;10.72;;;;;;;-2.41;100.00;100569.83;1639759;86;21615;-88
2021/03/22 00:42:08;;;;;;;15.58;10.58;;;;;;;-2.43;100.00;100567.31;1685424;85;21775;-88
2021/03/22 00:44:37;;;;;;;19.32;12.13;;;;;;;-2.50;100.00;100559.40;1686001;85;21615;-88
2021/03/22 00:47:05;;;;;;;14.53;10.23;;;;;;;-2.61;100.00;100553.27;1686077;85;21154;-88
2021/03/22 00:49:34;;;;;;;13.32;9.10;;;;;;;-2.71;100.00;100551.77;1686097;85;21151;-88
2021/03/22 00:52:03;;;;;;;13.32;8.75;;;;;;;-2.75;100.00;100564.16;1686018;85;22296;-88
2021/03/22 00:54:31;;;;;;;12.88;8.05;;;;;;;-2.74;100.00;100573.49;1685918;85;21088;-88
2021/03/22 00:57:03;;;;;;;13.70;8.68;;;;;;;-2.68;100.00;100569.53;1686140;85;21171;-88
2021/03/22 00:59:31;;;;;;;10.32;7.85;;;;;;;-2.64;100.00;100569.89;1686095;85;21191;-88
2021/03/22 01:02:00;;;;;;;12.40;7.72;;;;;;;-2.57;100.00;100562.51;1686024;85;21214;-88
2021/03/22 01:04:28;;;;;;;12.45;8.15;;;;;;;-2.50;100.00;100568.33;1686139;85;21598;-88
2021/03/22 01:06:57;;;;;;;12.10;7.33;;;;;;;-2.48;100.00;100563.19;1686158;85;21241;-88
2021/03/22 01:09:25;;;;;;;11.05;7.87;;;;;;;-2.46;100.00;100572.92;1686159;85;21206;-88
2021/03/22 01:11:53;;;;;;;10.88;6.90;;;;;;;-2.39;100.00;100570.64;1686229;85;21206;-88
2021/03/22 01:14:21;;;;;;;10.32;7.30;;;;;;;-2.29;100.00;100567.02;1686229;85;21179;-88
2021/03/22 01:16:50;;;;;;;10.05;6.78;;;;;;;-2.22;100.00;100567.28;1686166;85;22159;-88
2021/03/22 01:19:23;;;;;;;9.85;7.20;;;;;;;-2.14;100.00;100572.64;1686053;85;21170;-88
2021/03/22 01:21:56;;;;;;;10.43;7.08;;;;;;;-2.08;100.00;100569.94;1678535;85;21683;-88
2021/03/22 01:24:27;;;;;;;9.93;6.78;;;;;;;-2.05;100.00;100571.16;1686244;85;21202;-88
2021/03/22 01:27:02;;;;;;;11.60;7.62;;;;;;;-2.01;100.00;100579.13;1686194;85;21195;-88
2021/03/22 01:29:42;;;;;;;11.28;7.85;;;;;;;-1.98;100.00;100566.72;1686219;85;22300;-88
2021/03/22 01:32:12;;;;;;;7.80;6.05;;;;;;;-1.96;100.00;100572.64;1685141;85;21211;-88
2021/03/22 01:34:41;;;;;;;9.80;6.87;;;;;;;-1.93;100.00;100568.75;1686439;84;21155;-87
2021/03/22 01:37:12;;;;;;;9.80;7.12;;;;;;;-1.95;100.00;100563.66;1686117;85;21103;-88
2021/03/22 01:39:40;;;;;;;11.85;7.10;;;;;;;-1.96;100.00;100560.70;1686125;85;21118;-88
2021/03/22 01:42:34;;;;;;;10.03;7.28;;;;;;;-1.98;100.00;100561.62;1685869;85;21453;-88
2021/03/22 01:45:07;;;;;;;9.30;6.60;;;;;;;-1.98;100.00;100559.92;1659505;86;21238;-88
2021/03/22 01:47:49;;;;;;;12.70;9.80;;;;;;;-1.93;100.00;100559.36;1872804;76;27750;-86
2021/03/22 01:50:28;;;;;;;12.45;8.30;;;;;;;-1.95;100.00;100553.45;1859882;77;21862;-86
2021/03/22 01:52:58;;;;;;;12.07;7.55;;;;;;;-1.88;100.00;100554.60;1860049;77;22264;-87
2021/03/22 01:55:26;;;;;;;10.75;7.97;;;;;;;-1.91;100.00;100555.07;1859763;77;21453;-86
2021/03/22 01:57:54;;;;;;;12.05;8.15;;;;;;;-1.92;100.00;100554.66;1859904;77;21199;-86
2021/03/22 02:00:28;;;;;;;12.00;7.50;;;;;;;-1.92;100.00;100553.39;1859859;77;21223;-86
2021/03/22 02:03:07;;;;;;;15.40;8.75;;;;;;;-1.92;100.00;100552.53;1840672;77;21136;-87
2021/03/22 02:05:40;;;;;;;12.47;8.23;;;;;;;-1.92;100.00;100556.36;1857263;77;21326;-87
2021/03/22 02:08:16;;;;;;;16.30;9.73;;;;;;;-1.92;100.00;100554.66;1855208;77;21164;-87
2021/03/22 02:10:46;;;;;;;14.58;9.40;;;;;;;-1.95;100.00;100538.13;1803979;78;21227;-87
2021/03/22 02:13:17;;;;;;;14.00;9.88;;;;;;;-2.01;100.00;100540.84;1826225;78;21238;-87
2021/03/22 02:15:49;;;;;;;14.40;9.60;;;;;;;-2.10;100.00;100541.06;1846200;77;21112;-87
2021/03/22 02:18:29;;;;;;;15.48;9.98;;;;;;;-2.19;100.00;100542.55;1827409;77;22280;-88
2021/03/22 02:21:17;;;;;;;10.75;8.15;;;;;;;-2.24;100.00;100538.83;1856375;77;21135;-87
2021/03/22 02:24:27;;;;;;;14.30;9.85;;;;;;;-2.30;100.00;100544.07;1859877;77;21203;-88
2021/03/22 02:27:34;;;;;;;12.80;9.05;;;;;;;-2.36;100.00;100542.49;1859930;77;21180;-86
2021/03/22 02:30:42;;;;;;;13.30;8.93;;;;;;;-2.47;100.00;100539.36;1859901;77;21045;-86
2021/03/22 02:33:48;;;;;;;10.65;7.78;;;;;;;-2.65;100.00;100532.52;1859056;77;21330;-87
2021/03/22 02:36:34;;;;;;;11.30;8.08;;;;;;;-2.76;100.00;100534.02;1826215;78;21152;-87
2021/03/22 02:39:03;;;;;;;13.00;7.80;;;;;;;-2.74;100.00;100525.91;1826151;78;21176;-86
2021/03/22 02:41:43;;;;;;;11.28;7.58;;;;;;;-2.67;100.00;100527.05;1826286;78;21128;-87
2021/03/22 02:44:25;;;;;;;9.70;7.25;;;;;;;-2.65;100.00;100527.41;1822167;78;21179;-87
2021/03/22 02:46:58;;;;;;;9.55;6.92;;;;;;;-2.62;100.00;100532.88;1825906;78;21358;-88
2021/03/22 02:49:29;;;;;;;9.35;7.17;;;;;;;-2.62;100.00;100532.46;1825995;78;22071;-86
2021/03/22 02:52:27;;;;;;;10.45;7.65;;;;;;;-2.58;100.00;100528.13;1826396;78;21203;-86
2021/03/22 02:54:59;;;;;;;11.80;7.62;;;;;;;-2.54;100.00;100528.45;1811731;78;21080;-87
2021/03/22 02:57:46;;;;;;;9.23;7.72;;;;;;;-2.49;100.00;100525.38;1824789;78;21104;-87
2021/03/22 03:00:28;;;;;;;12.28;8.53;;;;;;;-2.49;100.00;100519.42;1820298;78;21458;-89
2021/03/22 03:03:02;;;;;;;9.98;7.62;;;;;;;-2.54;100.00;100508.91;1822186;78;21172;-88
2021/03/22 03:05:33;;;;;;;11.53;7.58;;;;;;;-2.59;100.00;100511.98;1825032;78;21065;-88
2021/03/22 03:08:11;;;;;;;10.55;7.87;;;;;;;-2.60;100.00;100514.12;1825462;78;21136;-88
2021/03/22 03:10:39;;;;;;;12.37;7.95;;;;;;;-2.62;100.00;100512.06;1825618;78;21133;-88
2021/03/22 03:13:07;;;;;;;12.20;9.08;;;;;;;-2.61;100.00;100514.16;1825621;78;21516;-88
2021/03/22 03:15:37;;;;;;;14.50;8.68;;;;;;;-2.63;100.00;100504.42;1825416;78;21291;-88
2021/03/22 03:18:05;;;;;;;11.55;8.48;;;;;;;-2.65;100.00;100505.75;1825467;78;21195;-88
2021/03/22 03:20:33;;;;;;;11.65;8.28;;;;;;;-2.66;100.00;100506.61;1825532;78;21140;-88
2021/03/22 03:23:04;;;;;;;10.90;7.67;;;;;;;-2.64;100.00;100507.87;1825699;78;21175;-88
2021/03/22 03:25:36;;;;;;;14.80;9.20;;;;;;;-2.62;100.00;100509.52;1825693;78;21364;-88
2021/03/22 03:28:04;;;;;;;14.10;9.55;;;;;;;-2.61;100.00;100508.64;1825399;78;21140;-88
2021/03/22 03:30:36;;;;;;;13.03;9.50;;;;;;;-2.63;100.00;100504.01;1825424;78;21159;-87
2021/03/22 03:33:13;;;;;;;15.18;10.63;;;;;;;-2.60;100.00;100500.55;1822088;78;21128;-88
2021/03/22 03:35:44;;;;;;;18.30;10.98;;;;;;;-2.61;100.00;100496.31;1824814;78;21136;-87
2021/03/22 03:38:13;;;;;;;14.07;10.53;;;;;;;-2.63;100.00;100496.78;1826528;77;21364;-88
2021/03/22 03:40:47;;;;;;;19.70;11.43;;;;;;;-2.61;100.00;100495.04;1858495;77;21132;-87
2021/03/22 03:43:18;;;;;;;16.00;10.95;;;;;;;-2.61;100.00;100488.67;1821423;78;21072;-86
2021/03/22 03:45:49;;;;;;;17.27;11.10;;;;;;;-2.58;100.00;100490.71;1821526;78;21643;-87
2021/03/22 03:48:25;;;;;;;17.32;11.35;;;;;;;-2.53;100.00;100490.61;1824528;78;21207;-87
2021/03/22 03:50:58;;;;;;;16.30;10.93;;;;;;;-2.52;100.00;100491.47;1778176;80;21317;-88
2021/03/22 03:53:27;;;;;;;18.82;10.18;;;;;;;-2.50;100.00;100490.97;1801762;79;21109;-90
2021/03/22 03:55:58;;;;;;;20.23;11.10;;;;;;;-2.45;100.00;100481.52;1801779;79;21205;-88
2021/03/22 03:58:26;;;;;;;18.95;11.93;;;;;;;-2.43;100.00;100478.48;1802058;79;21590;-87
2021/03/22 04:00:55;;;;;;;18.25;13.05;;;;;;;-2.40;100.00;100478.41;1801979;79;21147;-87
2021/03/22 04:03:35;;;;;;;19.60;13.08;;;;;;;-2.36;100.00;100477.91;1801904;79;21558;-88
2021/03/22 04:06:22;;;;;;;20.77;14.18;;;;;;;-2.33;100.00;100476.12;1797460;79;21185;-88
2021/03/22 04:08:55;;;;;;;43.55;16.17;;;;;;;-2.28;100.00;100474.28;1813888;79;21226;-88
2021/03/22 04:11:29;;;;;;;20.48;13.62;;;;;;;-2.21;100.00;100476.26;1813186;78;21200;-87
2021/03/22 04:13:58;;;;;;;30.75;15.40;;;;;;;-2.12;100.00;100481.56;1816282;78;21157;-87
2021/03/22 04:16:29;;;;;;;37.57;15.70;;;;;;;-2.06;100.00;100475.88;1816532;79;21633;-88
2021/03/22 04:18:58;;;;;;;;;;;;;;;-1.98;100.00;100476.98;1803542;77;21267;-87
2021/03/22 04:21:31;;;;;;;25.02;14.68;;;;;;;-1.92;100.00;100480.64;1798270;78;20252;-87
2021/03/22 04:24:04;;;;;;;22.80;14.15;;;;;;;-1.83;100.00;100481.28;1800413;79;21198;-84
2021/03/22 04:26:34;;;;;;;20.37;13.35;;;;;;;-1.76;100.00;100480.25;1808325;79;21042;-84
2021/03/22 04:29:03;;;;;;;23.95;15.30;;;;;;;-1.69;100.00;100480.48;1802603;79;21372;-84
2021/03/22 04:31:31;;;;;;;25.43;16.42;;;;;;;-1.65;100.00;100478.27;1784311;80;21546;-89
2021/03/22 04:34:28;;;;;;;28.27;16.52;;;;;;;-1.60;100.00;100476.83;1784601;80;21108;-89
2021/03/22 04:36:56;;;;;;;37.10;17.90;;;;;;;-1.57;100.00;100475.48;1801226;79;21165;-90
2021/03/22 04:39:27;;;;;;;25.60;16.85;;;;;;;-1.50;100.00;100477.45;1816843;78;21129;-90
2021/03/22 04:42:02;;;;;;;29.18;16.73;;;;;;;-1.44;100.00;100470.88;1816814;78;21364;-90
2021/03/22 04:45:00;;;;;;;34.48;20.80;;;;;;;-1.38;100.00;100480.92;1813581;78;21129;-90
2021/03/22 04:47:28;;;;;;;29.42;20.02;;;;;;;-1.30;100.00;100479.45;1804985;78;21216;-89
2021/03/22 04:49:56;;;;;;;32.95;21.33;;;;;;;-1.22;100.00;100472.83;1820607;78;21137;-89
2021/03/22 04:52:53;;;;;;;30.97;21.02;;;;;;;-1.17;100.00;100471.00;1796595;77;21121;-89
2021/03/22 04:55:24;;;;;;;31.62;20.82;;;;;;;-1.11;100.00;100473.38;1809737;78;21589;-90
2021/03/22 04:57:54;;;;;;;35.95;21.87;;;;;;;-1.05;100.00;100478.75;1824476;78;21168;-90
2021/03/22 05:04:27;;;;;;;37.98;24.37;;;;;;;-0.98;100.00;100477.23;1810752;77;21165;-89
2021/03/22 05:18:33;;;;;;;39.63;24.82;;;;;;;-0.39;100.00;100479.30;1787944;80;21172;-88
2021/03/22 05:21:09;;;;;;;40.43;24.60;;;;;;;-0.34;100.00;100485.10;1787834;80;21566;-88
2021/03/22 05:24:07;;;;;;;39.98;26.15;;;;;;;-0.35;100.00;100471.09;1788113;80;21145;-90
2021/03/22 05:30:30;;;;;;;50.65;27.90;;;;;;;-0.41;100.00;100476.41;1756890;81;21147;-89
2021/03/22 05:33:05;;;;;;;42.00;27.77;;;;;;;-0.29;100.00;100476.00;1757322;79;21422;-89
2021/03/22 05:35:33;;;;;;;49.35;32.05;;;;;;;-0.29;100.00;100475.18;1725755;81;21217;-90
2021/03/22 05:38:03;;;;;;;54.58;32.53;;;;;;;-0.32;100.00;100484.62;1776417;79;21569;-89
2021/03/22 05:40:50;;;;;;;59.48;36.38;;;;;;;-0.33;100.00;100476.55;1775633;79;21544;-90
2021/03/22 05:43:52;;;;;;;53.05;33.58;;;;;;;-0.33;100.00;100477.83;1779495;80;21176;-91
2021/03/22 05:46:52;;;;;;;54.05;34.60;;;;;;;-0.32;100.00;100480.78;1775265;79;21144;-89
2021/03/22 05:49:55;;;;;;;53.73;35.40;;;;;;;-0.30;100.00;100478.63;1760425;80;21144;-89
2021/03/22 05:53:06;;;;;;;54.03;32.03;;;;;;;-0.29;100.00;100479.02;1787941;80;21077;-90
2021/03/22 05:55:45;;;;;;;49.03;30.80;;;;;;;-0.28;100.00;100476.86;1783419;80;21217;-90
2021/03/22 06:02:40;;;;;;;46.92;24.10;;;;;;;-0.28;100.00;100481.97;1767283;80;21133;-91
2021/03/22 06:05:43;;;;;;;42.15;25.23;;;;;;;-0.14;100.00;100473.40;1788179;80;21184;-90
2021/03/22 06:08:45;;;;;;;38.25;22.48;;;;;;;0.04;100.00;100476.24;1787917;80;21152;-89
2021/03/22 06:11:38;;;;;;;37.20;22.15;;;;;;;0.16;100.00;100474.53;1787705;80;21437;-88
2021/03/22 06:14:30;;;;;;;32.73;21.85;;;;;;;0.27;100.00;100476.30;1769116;79;21205;-88
2021/03/22 06:17:19;;;;;;;;;;;;;;;0.32;100.00;100477.42;1736819;82;21211;-89
2021/03/22 06:19:59;;;;;;;35.38;22.02;;;;;;;0.35;100.00;100479.86;1752874;81;20284;-88
2021/03/22 06:22:34;;;;;;;54.90;23.10;;;;;;;0.36;100.00;100475.59;1751674;81;21536;-89
2021/03/22 06:25:10;;;;;;;35.15;22.87;;;;;;;0.34;100.00;100477.36;1756836;81;21446;-87
2021/03/22 06:28:38;;;;;;;34.18;21.70;;;;;;;0.40;100.00;100477.96;1852752;77;22710;-87
2021/03/22 06:31:11;;;;;;;34.25;22.58;;;;;;;0.41;100.00;100474.97;1820166;78;21441;-87
2021/03/22 06:33:45;;;;;;;34.60;22.58;;;;;;;0.44;100.00;100474.41;1857922;77;22105;-87
2021/03/22 06:36:21;;;;;;;31.90;21.20;;;;;;;0.51;100.00;100477.61;1857938;77;21108;-87
2021/03/22 06:38:57;;;;;;;33.83;23.10;;;;;;;0.55;100.00;100465.06;1857772;77;21118;-87
2021/03/22 06:41:51;;;;;;;30.40;21.60;;;;;;;0.60;100.00;100467.00;1857895;77;21122;-88
2021/03/22 06:44:47;;;;;;;31.87;22.15;;;;;;;0.66;100.00;100462.57;1857969;77;21108;-87
2021/03/22 06:47:28;;;;;;;32.60;22.80;;;;;;;0.72;100.00;100471.31;1840332;76;21491;-87
2021/03/22 06:50:29;;;;;;;31.60;22.05;;;;;;;0.73;100.00;100466.58;1831252;77;21166;-88
2021/03/22 06:52:58;;;;;;;34.85;23.18;;;;;;;0.76;100.00;100472.42;1824404;78;21099;-87
2021/03/22 06:55:55;;;;;;;31.20;21.07;;;;;;;0.81;100.00;100461.16;1801731;79;21525;-87
2021/03/22 07:07:07;;;;;;;35.78;21.85;;;;;;;0.90;100.00;100460.81;1834284;78;21138;-88
2021/03/22 07:14:04;;;;;;;29.95;20.00;;;;;;;0.99;100.00;100454.53;1834366;78;21574;-89
2021/03/22 07:21:19;;;;;;;35.45;24.12;;;;;;;1.11;100.00;100452.77;1823575;78;21139;-91
2021/03/22 07:33:23;;;;;;;30.82;20.65;;;;;;;1.24;100.00;100432.14;1790790;78;21139;-89
2021/03/22 07:40:26;;;;;;;31.37;20.10;;;;;;;1.32;100.00;100428.47;1790066;80;20996;-90
2021/03/22 07:51:57;;;;;;;32.10;19.48;;;;;;;1.40;100.00;100432.39;1797160;78;21544;-87
2021/03/22 07:59:34;;;;;;;28.17;20.55;;;;;;;1.62;100.00;100421.72;1790052;80;21568;-87
2021/03/22 08:07:04;;;;;;;27.48;19.45;;;;;;;1.89;100.00;100409.46;1791496;78;21001;-88
2021/03/22 08:10:19;;;;;;;25.43;18.82;;;;;;;2.07;100.00;100406.55;1814756;78;21132;-88
2021/03/22 08:17:17;;;;;;;28.70;19.30;;;;;;;2.38;100.00;100389.79;1818392;78;21111;-88
2021/03/22 08:28:38;;;;;;;23.57;16.77;;;;;;;3.08;100.00;100378.47;1818149;78;21597;-87
2021/03/22 08:31:41;;;;;;;21.87;16.77;;;;;;;3.35;100.00;100375.92;1796225;79;21511;-87
2021/03/22 08:38:08;;;;;;;19.82;14.18;;;;;;;3.68;100.00;100364.87;1815553;79;20286;-87
2021/03/22 08:50:00;;;;;;;19.23;14.80;;;;;;;4.10;100.00;100346.38;1797322;77;21109;-88
2021/03/22 08:52:37;;;;;;;18.75;13.95;;;;;;;4.28;100.00;100339.02;1818323;77;22319;-88
2021/03/22 09:03:39;;;;;;;40.43;23.15;;;;;;;4.60;95.14;100321.83;1795576;80;21602;-88
2021/03/22 09:10:36;;;;;;;19.50;14.93;;;;;;;4.80;93.94;100313.44;1795740;80;20302;-88
2021/03/22 09:21:24;;;;;;;16.55;12.23;;;;;;;5.17;80.67;100304.89;1817550;78;21483;-89
2021/03/22 09:24:43;;;;;;;15.58;12.47;;;;;;;5.28;79.19;100297.37;1796222;78;21138;-89
2021/03/22 09:35:02;;;;;;;16.05;11.38;;;;;;;5.30;74.14;100299.41;1834697;78;21560;-89
2021/03/22 09:37:59;;;;;;;17.30;11.90;;;;;;;5.27;71.30;100293.12;1833640;78;21627;-89
2021/03/22 09:45:04;;;;;;;18.02;13.68;;;;;;;5.52;72.71;100304.16;1803921;79;22362;-89
2021/03/22 09:48:05;;;;;;;17.90;12.30;;;;;;;5.73;73.51;100297.33;1833670;77;21163;-89
2021/03/22 09:50:37;;;;;;;18.20;13.88;;;;;;;5.89;70.35;100295.93;1783015;79;21540;-89
2021/03/22 09:53:54;;;;;;;15.38;12.68;;;;;;;6.04;67.40;100288.22;1810433;79;21116;-89
2021/03/22 10:05:07;;;;;;;16.15;12.70;;;;;;;6.43;63.18;100279.72;1808931;79;21152;-88
2021/03/22 10:07:39;;;;;;;16.02;12.93;;;;;;;6.56;66.48;100270.73;1794094;79;21576;-86
2021/03/22 10:10:30;;;;;;;17.57;13.05;;;;;;;6.66;60.72;100276.61;1800976;79;21120;-87
2021/03/22 10:13:20;;;;;;;17.23;12.63;;;;;;;6.62;59.30;100276.80;1800660;78;21116;-89
2021/03/22 10:16:00;;;;;;;17.87;13.85;;;;;;;6.56;61.99;100276.38;1785038;79;21540;-86
2021/03/22 10:19:00;;;;;;;20.65;14.40;;;;;;;6.59;61.33;100270.98;1827323;77;21211;-86
2021/03/22 10:21:44;;;;;;;17.27;13.30;;;;;;;6.55;64.40;100265.66;1803425;79;21100;-86
2021/03/22 10:24:55;;;;;;;15.93;13.85;;;;;;;6.42;60.84;100263.02;1772354;79;21175;-86
2021/03/22 10:27:32;;;;;;;18.37;14.38;;;;;;;6.23;62.58;100263.34;1804444;78;22246;-86
2021/03/22 10:30:11;;;;;;;16.17;13.30;;;;;;;6.20;64.34;100263.08;1804501;79;21535;-86
2021/03/22 10:33:03;;;;;;;17.90;12.53;;;;;;;6.26;63.43;100256.23;1870695;75;22735;-85
2021/03/22 10:35:49;;;;;;;24.47;14.93;;;;;;;6.20;64.16;100259.66;1824367;76;21074;-86
2021/03/22 10:38:25;;;;;;;16.17;13.88;;;;;;;6.19;64.65;100256.25;1820204;77;21355;-87
2021/03/22 10:40:56;;;;;;;18.77;13.75;;;;;;;6.30;64.92;100243.45;1820355;76;21156;-87
2021/03/22 10:43:33;;;;;;;;;;;;;;;6.52;67.53;100245.99;1843447;78;21668;-87
2021/03/22 10:46:21;;;;;;;19.55;14.00;;;;;;;6.75;67.12;100241.09;1839158;76;20226;-86
2021/03/22 10:52:36;;;;;;;16.10;13.30;;;;;;;7.17;62.39;100231.39;1784335;80;21108;-87
2021/03/22 10:55:07;;;;;;;16.93;12.20;;;;;;;7.32;62.62;100232.62;1784205;80;21366;-87
2021/03/22 10:57:39;;;;;;;18.07;13.25;;;;;;;7.40;57.41;100228.56;1784289;78;21530;-88
2021/03/22 11:00:29;;;;;;;43.13;26.02;;;;;;;7.33;57.50;100220.84;1791249;79;21479;-88
2021/03/22 11:03:00;;;;;;;21.35;13.30;;;;;;;7.28;56.99;100212.57;1787273;79;21196;-87
2021/03/22 11:05:44;;;;;;;18.70;14.13;;;;;;;7.23;56.03;100206.86;1749566;82;21180;-87
2021/03/22 11:08:34;;;;;;;17.48;13.72;;;;;;;7.19;56.15;100214.48;1773672;80;22297;-86
2021/03/22 11:11:12;;;;;;;18.55;13.62;;;;;;;7.13;56.52;100202.77;1749001;82;21445;-87
2021/03/22 11:13:49;;;;;;;22.17;15.03;;;;;;;7.01;55.12;100203.61;1748808;82;21443;-88
2021/03/22 11:16:27;;;;;;;19.65;14.58;;;;;;;6.85;56.58;100199.89;1768174;80;21230;-87
2021/03/22 11:19:11;;;;;;;16.25;13.80;;;;;;;6.77;56.89;100198.64;1744715;80;21118;-87
2021/03/22 11:22:20;;;;;;;18.32;14.25;;;;;;;6.80;56.31;100200.20;1743411;81;21381;-88
2021/03/22 11:24:49;;;;;;;18.73;14.03;;;;;;;6.90;57.46;100193.48;1738482;81;21230;-86
2021/03/22 11:27:18;;;;;;;17.25;13.78;;;;;;;7.06;56.72;100183.41;1738854;81;21202;-86
2021/03/22 11:29:58;;;;;;;17.70;13.65;;;;;;;7.13;57.48;100178.65;1749100;81;21115;-86
2021/03/22 11:32:34;;;;;;;18.62;15.05;;;;;;;7.07;57.61;100174.70;1724234;83;21139;-87
2021/03/22 11:35:27;;;;;;;16.52;14.13;;;;;;;7.18;57.25;100172.20;1726890;81;21412;-87
2021/03/22 11:38:02;;;;;;;16.77;13.78;;;;;;;7.31;56.34;100171.38;1736401;81;21135;-86
2021/03/22 11:40:33;;;;;;;15.43;13.00;;;;;;;7.36;55.35;100174.47;1750974;81;21188;-87
2021/03/22 11:43:33;;;;;;;18.40;13.95;;;;;;;7.37;55.67;100174.84;1749191;81;21187;-87
2021/03/22 11:46:18;;;;;;;18.17;13.95;;;;;;;7.44;55.60;100180.44;1737829;81;21169;-87
2021/03/22 11:48:46;;;;;;;14.95;12.58;;;;;;;7.50;56.28;100176.13;1740837;81;22087;-86
2021/03/22 11:51:15;;;;;;;19.10;13.78;;;;;;;7.61;57.44;100175.38;1731517;82;21648;-88
2021/03/22 11:54:03;;;;;;;16.35;14.13;;;;;;;7.72;57.40;100179.34;1745377;82;21183;-86
2021/03/22 11:56:38;;;;;;;19.30;13.32;;;;;;;7.78;53.30;100175.02;1718610;82;21568;-87
2021/03/22 11:59:22;;;;;;;19.62;14.78;;;;;;;7.79;54.34;100175.84;1738281;82;21076;-87
2021/03/22 12:02:18;;;;;;;16.12;13.08;;;;;;;7.78;54.69;100169.84;1730218;82;21364;-88
2021/03/22 12:05:00;;;;;;;18.20;13.40;;;;;;;7.72;53.88;100173.69;1724933;82;21146;-88
2021/03/22 12:07:45;;;;;;;15.65;12.50;;;;;;;7.67;54.93;100171.89;1712659;82;21293;-89
2021/03/22 12:10:20;;;;;;;16.32;12.60;;;;;;;7.68;54.71;100170.96;1729808;82;21157;-88
2021/03/22 12:12:51;;;;;;;16.32;13.60;;;;;;;7.67;53.87;100169.75;1724860;82;21548;-88
2021/03/22 12:15:21;;;;;;;17.17;13.50;;;;;;;7.65;54.92;100169.05;1728412;82;21596;-88
2021/03/22 12:17:59;;;;;;;16.62;14.20;;;;;;;7.60;57.23;100159.01;1723649;82;21875;-88
2021/03/22 12:20:31;;;;;;;18.42;14.00;;;;;;;7.52;53.34;100163.41;1724731;82;21152;-88
2021/03/22 12:23:04;;;;;;;19.55;13.28;;;;;;;7.33;52.76;100162.56;1732453;82;21175;-88
2021/03/22 12:25:36;;;;;;;15.68;12.58;;;;;;;7.17;54.65;100162.77;1719163;82;21167;-88
2021/03/22 12:28:05;;;;;;;16.62;13.35;;;;;;;7.04;54.06;100161.95;1720332;82;21446;-87
2021/03/22 12:30:41;;;;;;;17.23;13.13;;;;;;;6.92;53.47;100160.58;1723696;82;21157;-87
2021/03/22 12:33:28;;;;;;;16.05;12.93;;;;;;;6.83;53.50;100156.01;1721453;82;21548;-87
2021/03/22 12:36:14;;;;;;;18.25;14.75;;;;;;;6.82;55.66;100152.20;1800319;77;22249;-87
2021/03/22 12:38:45;;;;;;;14.98;12.43;;;;;;;6.79;56.21;100148.07;1777945;79;21470;-87
2021/03/22 12:41:21;;;;;;;19.02;13.70;;;;;;;6.84;55.07;100146.02;1772259;79;21378;-87
2021/03/22 12:44:24;;;;;;;16.93;12.82;;;;;;;6.93;54.12;100149.74;1791036;79;21490;-88
2021/03/22 12:46:52;;;;;;;18.62;14.45;;;;;;;6.95;54.73;100144.00;1776060;80;21132;-86
2021/03/22 12:49:21;;;;;;;14.80;12.20;;;;;;;6.94;54.34;100139.27;1781338;80;21081;-86
2021/03/22 12:51:51;;;;;;;16.97;13.53;;;;;;;6.95;53.86;100133.17;1776867;80;21167;-86
2021/03/22 12:54:19;;;;;;;15.95;13.30;;;;;;;6.98;54.10;100126.95;1733326;81;21382;-87
2021/03/22 12:56:55;;;;;;;19.32;14.40;;;;;;;7.02;54.06;100134.04;1753321;81;21137;-86
2021/03/22 12:59:52;;;;;;;18.07;14.05;;;;;;;7.00;52.39;100131.56;1753335;81;21054;-87
2021/03/22 13:02:24;;;;;;;18.35;13.22;;;;;;;6.94;53.00;100127.63;1753467;81;21148;-88
2021/03/22 13:04:53;;;;;;;16.32;13.75;;;;;;;6.93;54.28;100125.97;1789344;79;21131;-88
2021/03/22 13:07:22;;;;;;;17.98;12.90;;;;;;;6.92;53.77;100135.98;1797160;79;21363;-88
2021/03/22 13:09:52;;;;;;;17.42;14.10;;;;;;;6.84;52.41;100133.09;1793962;79;21171;-88
2021/03/22 13:12:27;;;;;;;17.73;13.25;;;;;;;6.76;52.90;100130.18;1773626;79;21176;-88
2021/03/22 13:14:57;;;;;;;17.95;13.13;;;;;;;6.76;53.27;100140.53;1778262;79;21235;-88
2021/03/22 13:17:35;;;;;;;15.65;13.03;;;;;;;6.74;53.59;100135.44;1738382;80;21171;-88
2021/03/22 13:20:07;;;;;;;17.98;14.13;;;;;;;6.72;54.91;100131.30;1746094;80;22281;-89
2021/03/22 13:22:35;;;;;;;16.80;13.62;;;;;;;6.70;54.23;100127.98;1767099;80;21444;-87
2021/03/22 13:25:12;;;;;;;17.80;12.68;;;;;;;6.67;54.26;100130.78;1763829;79;21578;-88
2021/03/22 13:27:41;;;;;;;16.30;13.18;;;;;;;6.63;54.59;100128.39;1715239;81;21554;-88
2021/03/22 13:30:15;;;;;;;15.00;11.38;;;;;;;6.60;54.02;100123.44;1766131;80;21137;-88
2021/03/22 13:32:43;;;;;;;21.40;14.00;;;;;;;6.57;55.39;100122.34;1761772;80;21340;-87
2021/03/22 13:35:22;;;;;;;17.12;12.07;;;;;;;6.56;53.79;100125.85;1785866;79;21170;-87
2021/03/22 13:37:51;;;;;;;14.93;11.73;;;;;;;6.55;54.66;100125.48;1787732;80;21124;-87
2021/03/22 13:40:20;;;;;;;18.70;14.78;;;;;;;6.57;55.91;100121.05;1787009;79;21179;-87
2021/03/22 13:42:49;;;;;;;17.00;12.98;;;;;;;6.58;55.32;100120.56;1719462;81;21211;-87
2021/03/22 13:45:28;;;;;;;17.10;13.65;;;;;;;6.52;55.61;100119.23;1787937;80;21444;-88
2021/03/22 13:47:58;;;;;;;17.42;13.08;;;;;;;6.47;56.19;100117.40;1718919;83;21173;-87
2021/03/22 13:50:30;;;;;;;16.93;13.53;;;;;;;6.38;55.62;100112.38;1694809;83;21215;-88
2021/03/22 13:53:03;;;;;;;17.23;13.20;;;;;;;6.30;56.52;100119.81;1723009;83;21164;-87
2021/03/22 13:55:34;;;;;;;16.85;13.10;;;;;;;6.24;57.16;100118.45;1737742;82;21606;-89
2021/03/22 13:58:12;;;;;;;19.05;13.60;;;;;;;6.23;57.46;100109.50;1723044;83;21386;-88
2021/03/22 14:00:40;;;;;;;17.50;14.10;;;;;;;6.20;57.46;100111.83;1742264;81;21195;-88
2021/03/22 14:03:11;;;;;;;16.93;13.25;;;;;;;6.17;58.08;100108.14;1752017;80;21123;-88
2021/03/22 14:05:48;;;;;;;17.60;14.33;;;;;;;6.12;58.36;100105.84;1774786;78;21155;-88
2021/03/22 14:08:22;;;;;;;18.73;14.60;;;;;;;6.07;58.55;100107.91;1775172;79;21199;-89
2021/03/22 14:10:55;;;;;;;16.93;12.82;;;;;;;6.03;58.25;100102.56;1752588;80;22393;-87
2021/03/22 14:13:23;;;;;;;14.45;12.90;;;;;;;6.02;59.37;100102.67;1773637;79;21128;-88
2021/03/22 14:15:52;;;;;;;16.82;13.53;;;;;;;5.99;60.35;100101.93;1779775;80;21168;-88
2021/03/22 14:18:26;;;;;;;18.15;13.88;;;;;;;5.98;59.95;100104.59;1763417;79;21196;-89
2021/03/22 14:20:58;;;;;;;17.60;13.43;;;;;;;5.97;60.23;100102.45;1754345;80;21172;-87
2021/03/22 14:23:30;;;;;;;18.87;14.10;;;;;;;5.96;58.28;100109.87;1777748;79;21190;-87
2021/03/22 14:26:01;;;;;;;15.80;13.03;;;;;;;5.94;57.22;100103.95;1770804;79;21629;-88
2021/03/22 14:28:29;;;;;;;19.10;14.20;;;;;;;5.93;57.45;100097.61;1763851;80;21179;-88